Time;durP1;ratioP1;P1;durP2;ratioP2;P2;SDS_P1;SDS_P2;PMS_P1;PMS_P2;Temp;Humidity;BMP_temperature;BMP_pressure;BME280_temperature;BME280_humidity;BME280_pressure;Samples;Min_cycle;Max_cycle;Signal;HPM_P1;HPM_P2
2021/10/09 00:02:19;;;;;;;2.00;1.75;;;;;;;;;;4987961;28;20065;-40
2021/10/09 00:04:44;;;;;;;5.57;2.40;;;;;;;;;;4990351;28;20137;-39
2021/10/09 00:07:10;;;;;;;4.10;2.47;;;;;;;;;;4987255;28;20053;-38
2021/10/09 00:09:35;;;;;;;10.32;8.35;;;;;;;;;;4992732;28;20474;-38
2021/10/09 00:12:00;;;;;;;6.15;4.93;;;;;;;;;;4989739;28;20041;-38
2021/10/09 00:14:26;;;;;;;7.18;2.65;;;;;;;;;;4989282;28;20071;-39
2021/10/09 00:16:51;;;;;;;5.72;1.88;;;;;;;;;;4990669;28;20018;-41
2021/10/09 00:19:16;;;;;;;1.75;1.45;;;;;;;;;;4992502;28;20022;-38
2021/10/09 00:21:45;;;;;;;4.00;2.58;;;;;;;;;;4987220;28;20453;-38
2021/10/09 00:24:11;;;;;;;4.72;1.95;;;;;;;;;;4993409;28;20076;-38
2021/10/09 00:26:36;;;;;;;5.55;2.00;;;;;;;;;;4992800;28;20031;-38
2021/10/09 00:29:02;;;;;;;9.82;2.15;;;;;;;;;;4989386;28;20026;-39
2021/10/09 00:31:28;;;;;;;2.85;1.95;;;;;;;;;;4990505;28;20029;-38
2021/10/09 00:33:53;;;;;;;2.20;1.02;;;;;;;;;;4988119;28;20467;-41
2021/10/09 00:36:18;;;;;;;10.95;1.67;;;;;;;;;;4993050;28;20105;-43
2021/10/09 00:38:44;;;;;;;4.57;1.55;;;;;;;;;;4990920;28;20036;-41
2021/10/09 00:41:09;;;;;;;5.22;1.95;;;;;;;;;;4991706;28;20053;-38
2021/10/09 00:43:34;;;;;;;2.35;1.83;;;;;;;;;;4992002;28;20388;-39
2021/10/09 00:46:02;;;;;;;8.25;2.63;;;;;;;;;;4992263;28;20054;-38
2021/10/09 00:48:28;;;;;;;2.15;1.08;;;;;;;;;;4989283;28;20075;-37
2021/10/09 00:50:53;;;;;;;3.90;1.60;;;;;;;;;;4991518;28;20025;-38
2021/10/09 00:53:19;;;;;;;1.55;1.08;;;;;;;;;;4992435;28;20018;-38
2021/10/09 00:55:45;;;;;;;2.30;1.38;;;;;;;;;;4988966;28;20058;-41
2021/10/09 00:58:11;;;;;;;1.95;1.10;;;;;;;;;;4990046;28;20022;-35
2021/10/09 01:00:36;;;;;;;4.70;1.88;;;;;;;;;;4987767;28;20027;-37
2021/10/09 01:03:05;;;;;;;1.88;1.27;;;;;;;;;;4985850;28;20030;-36
2021/10/09 01:05:32;;;;;;;1.38;0.80;;;;;;;;;;4989043;28;20014;-35
2021/10/09 01:07:58;;;;;;;16.08;2.13;;;;;;;;;;4989077;28;20078;-36
2021/10/09 01:10:24;;;;;;;2.03;1.40;;;;;;;;;;4988258;28;20030;-35
2021/10/09 01:12:49;;;;;;;2.67;1.40;;;;;;;;;;4994937;28;20436;-35
2021/10/09 01:15:24;;;;;;;2.47;1.27;;;;;;;;;;4991312;28;20107;-35
2021/10/09 01:17:50;;;;;;;2.25;1.27;;;;;;;;;;4993023;28;20044;-37
2021/10/09 01:20:16;;;;;;;2.65;1.55;;;;;;;;;;4985750;28;20483;-41
2021/10/09 01:22:42;;;;;;;5.80;3.03;;;;;;;;;;4990244;28;20019;-38
2021/10/09 01:25:08;;;;;;;7.63;2.63;;;;;;;;;;4990981;28;20022;-36
2021/10/09 01:27:34;;;;;;;3.65;1.98;;;;;;;;;;4988210;28;20029;-37
2021/10/09 01:29:59;;;;;;;4.30;1.83;;;;;;;;;;4992281;28;20407;-36
2021/10/09 01:32:24;;;;;;;6.22;1.67;;;;;;;;;;4990203;28;20053;-35
2021/10/09 01:34:50;;;;;;;5.78;2.08;;;;;;;;;;4989209;28;20042;-39
2021/10/09 01:37:15;;;;;;;12.30;1.92;;;;;;;;;;4988356;28;20417;-39
2021/10/09 01:39:44;;;;;;;2.25;1.77;;;;;;;;;;4990652;28;20022;-35
2021/10/09 01:42:09;;;;;;;8.63;2.17;;;;;;;;;;4988660;28;20034;-35
2021/10/09 01:44:35;;;;;;;1.90;1.33;;;;;;;;;;4988621;28;20475;-36
2021/10/09 01:47:00;;;;;;;4.43;2.47;;;;;;;;;;4988611;28;20511;-35
2021/10/09 01:49:25;;;;;;;5.18;1.50;;;;;;;;;;4991880;28;20031;-38
2021/10/09 01:51:51;;;;;;;3.47;2.30;;;;;;;;;;4988925;28;20034;-37
2021/10/09 01:54:16;;;;;;;3.50;1.90;;;;;;;;;;4988964;28;20021;-40
2021/10/09 01:56:41;;;;;;;5.15;1.77;;;;;;;;;;4995145;28;20014;-37
2021/10/09 01:59:07;;;;;;;2.63;1.38;;;;;;;;;;4994630;28;20022;-39
2021/10/09 02:01:32;;;;;;;2.28;1.17;;;;;;;;;;4992583;28;20038;-40
2021/10/09 02:03:57;;;;;;;4.38;1.35;;;;;;;;;;4989502;28;20101;-38
2021/10/09 02:06:23;;;;;;;3.35;1.27;;;;;;;;;;4992250;28;20022;-38
2021/10/09 02:08:48;;;;;;;4.95;1.65;;;;;;;;;;4994481;28;20101;-37
2021/10/09 02:11:17;;;;;;;6.53;2.30;;;;;;;;;;4996610;28;20554;-36
2021/10/09 02:14:48;;;;;;;3.67;2.30;;;;;;;;;;4995712;28;20023;-39
2021/10/09 02:17:11;;;;;;;4.50;2.67;;;;;;;;;;5003169;28;20041;-39
2021/10/09 02:28:00;;;;;;;3.67;1.58;;;;;;;;;;4972712;28;20031;-37
2021/10/09 02:30:26;;;;;;;10.25;1.60;;;;;;;;;;4987569;28;20463;-37
2021/10/09 02:32:51;;;;;;;4.53;1.85;;;;;;;;;;4993782;28;20083;-37
2021/10/09 02:35:16;;;;;;;3.78;1.35;;;;;;;;;;4995966;28;20022;-35
2021/10/09 02:37:42;;;;;;;3.08;1.50;;;;;;;;;;4992360;28;20132;-39
2021/10/09 02:40:07;;;;;;;1.17;0.82;;;;;;;;;;4995952;28;20021;-37
2021/10/09 02:42:32;;;;;;;2.05;1.42;;;;;;;;;;5001930;28;20385;-38
2021/10/09 02:44:58;;;;;;;3.20;1.48;;;;;;;;;;4993421;28;20042;-38
2021/10/09 02:47:23;;;;;;;7.75;3.13;;;;;;;;;;4993214;28;20387;-37
2021/10/09 02:49:48;;;;;;;6.10;3.03;;;;;;;;;;4992075;28;20036;-37
2021/10/09 02:52:14;;;;;;;11.55;2.88;;;;;;;;;;4994535;28;20077;-37
2021/10/09 02:54:39;;;;;;;2.50;1.60;;;;;;;;;;4990820;28;20029;-37
2021/10/09 02:57:04;;;;;;;2.58;1.40;;;;;;;;;;4995392;28;20153;-37
2021/10/09 02:59:29;;;;;;;3.47;1.80;;;;;;;;;;4992859;28;20143;-37
2021/10/09 03:01:55;;;;;;;2.20;1.40;;;;;;;;;;4989404;28;20022;-37
2021/10/09 03:04:20;;;;;;;4.07;2.08;;;;;;;;;;4990972;28;20015;-37
2021/10/09 03:06:45;;;;;;;2.92;1.83;;;;;;;;;;4990735;28;20109;-38
2021/10/09 03:09:11;;;;;;;3.03;1.33;;;;;;;;;;4994909;28;20051;-37
2021/10/09 03:11:36;;;;;;;6.10;2.13;;;;;;;;;;4994568;28;20097;-37
2021/10/09 03:14:01;;;;;;;5.63;1.90;;;;;;;;;;4996098;28;20599;-38
2021/10/09 03:16:27;;;;;;;12.10;2.67;;;;;;;;;;4995362;28;20134;-39
2021/10/09 03:18:52;;;;;;;2.72;2.05;;;;;;;;;;4990937;28;20030;-40
2021/10/09 03:21:17;;;;;;;2.60;1.67;;;;;;;;;;4994750;28;20475;-38
2021/10/09 03:23:42;;;;;;;2.80;2.15;;;;;;;;;;4991572;28;20395;-37
2021/10/09 03:26:08;;;;;;;4.20;2.13;;;;;;;;;;4991250;28;20030;-38
2021/10/09 03:28:33;;;;;;;9.82;1.95;;;;;;;;;;4993850;28;20040;-37
2021/10/09 03:30:58;;;;;;;2.25;1.45;;;;;;;;;;4988288;28;20019;-37
2021/10/09 03:33:24;;;;;;;4.22;2.58;;;;;;;;;;4990744;28;20018;-36
2021/10/09 03:35:49;;;;;;;4.18;2.47;;;;;;;;;;4990249;28;20066;-37
2021/10/09 03:38:14;;;;;;;6.63;3.17;;;;;;;;;;4996257;28;20026;-37
2021/10/09 03:40:43;;;;;;;12.15;4.70;;;;;;;;;;4990612;28;20119;-36
2021/10/09 03:43:18;;;;;;;4.30;2.67;;;;;;;;;;4990293;28;20031;-38
2021/10/09 03:53:02;;;;;;;3.75;1.67;;;;;;;;;;4989939;28;20145;-39
2021/10/09 03:55:27;;;;;;;3.95;1.38;;;;;;;;;;4992063;28;20018;-37
2021/10/09 03:57:52;;;;;;;4.55;2.22;;;;;;;;;;4991261;28;20033;-38
2021/10/09 04:00:18;;;;;;;3.15;2.40;;;;;;;;;;4989098;28;20010;-39
2021/10/09 04:02:43;;;;;;;3.30;2.35;;;;;;;;;;4984023;28;20038;-39
2021/10/09 04:05:09;;;;;;;5.32;3.28;;;;;;;;;;4991176;28;20456;-38
2021/10/09 04:07:34;;;;;;;4.20;2.45;;;;;;;;;;4988101;28;20030;-37
2021/10/09 04:10:00;;;;;;;4.70;2.33;;;;;;;;;;4988624;28;20066;-37
2021/10/09 04:12:25;;;;;;;3.40;1.70;;;;;;;;;;5006180;28;20021;-39
2021/10/09 04:14:50;;;;;;;7.70;2.80;;;;;;;;;;4983015;28;20127;-37
2021/10/09 04:17:16;;;;;;;2.55;1.30;;;;;;;;;;4988322;28;20042;-38
2021/10/09 04:19:41;;;;;;;3.45;1.45;;;;;;;;;;4990128;28;20026;-37
2021/10/09 04:22:07;;;;;;;2.50;1.20;;;;;;;;;;4991545;28;20470;-37
2021/10/09 04:24:32;;;;;;;3.83;2.08;;;;;;;;;;4989996;28;20046;-37
2021/10/09 04:26:57;;;;;;;3.83;2.08;;;;;;;;;;4985576;28;20534;-38
2021/10/09 04:29:23;;;;;;;3.72;1.75;;;;;;;;;;4996969;28;20021;-36
2021/10/09 04:31:48;;;;;;;3.63;2.20;;;;;;;;;;4991117;28;20026;-38
2021/10/09 04:34:14;;;;;;;2.13;1.52;;;;;;;;;;4987081;28;20027;-37
2021/10/09 04:36:39;;;;;;;1.95;1.52;;;;;;;;;;4985556;28;20051;-38
2021/10/09 04:39:04;;;;;;;25.27;3.10;;;;;;;;;;4990755;28;20033;-39
2021/10/09 04:41:30;;;;;;;10.85;2.63;;;;;;;;;;4984358;28;20503;-37
2021/10/09 04:43:55;;;;;;;4.38;1.85;;;;;;;;;;4989515;28;20058;-38
2021/10/09 04:46:21;;;;;;;2.55;1.30;;;;;;;;;;4987397;28;20026;-38
2021/10/09 04:48:46;;;;;;;5.25;1.75;;;;;;;;;;4984479;28;20022;-38
2021/10/09 04:51:12;;;;;;;1.33;1.17;;;;;;;;;;4990420;28;20471;-37
2021/10/09 04:53:37;;;;;;;5.97;2.13;;;;;;;;;;4989138;28;20072;-37
2021/10/09 04:56:02;;;;;;;1.35;1.10;;;;;;;;;;4991850;28;20014;-37
2021/10/09 04:58:28;;;;;;;6.70;1.48;;;;;;;;;;4993471;28;20750;-37
2021/10/09 05:00:53;;;;;;;3.35;1.33;;;;;;;;;;4988051;28;20072;-38
2021/10/09 05:03:18;;;;;;;2.22;1.17;;;;;;;;;;4993684;28;20026;-39
2021/10/09 05:05:44;;;;;;;3.58;2.10;;;;;;;;;;4987759;28;20083;-38
2021/10/09 05:08:10;;;;;;;2.90;1.52;;;;;;;;;;4990392;28;20025;-38
2021/10/09 05:10:35;;;;;;;4.13;2.70;;;;;;;;;;4989527;28;20022;-38
2021/10/09 05:13:01;;;;;;;4.72;1.85;;;;;;;;;;4998216;28;20480;-37
2021/10/09 05:15:26;;;;;;;9.15;2.63;;;;;;;;;;4990625;28;20006;-43
2021/10/09 05:17:51;;;;;;;6.38;3.60;;;;;;;;;;4988057;28;20036;-37
2021/10/09 05:20:18;;;;;;;13.70;4.13;;;;;;;;;;4987937;28;20026;-38
2021/10/09 05:22:43;;;;;;;5.28;3.42;;;;;;;;;;4990049;28;20029;-37
2021/10/09 05:25:09;;;;;;;5.47;4.53;;;;;;;;;;4993223;28;20079;-40
2021/10/09 05:27:35;;;;;;;10.15;4.80;;;;;;;;;;4990722;28;20449;-38
2021/10/09 05:30:06;;;;;;;2.25;1.40;;;;;;;;;;4988609;28;20034;-40
2021/10/09 05:32:32;;;;;;;5.25;1.85;;;;;;;;;;4990419;28;20245;-37
2021/10/09 05:34:58;;;;;;;2.83;2.17;;;;;;;;;;4994600;28;20165;-40
2021/10/09 05:37:23;;;;;;;3.67;1.77;;;;;;;;;;4986556;28;20516;-37
2021/10/09 05:39:48;;;;;;;4.60;2.03;;;;;;;;;;4988476;28;20021;-37
2021/10/09 05:42:14;;;;;;;2.78;1.80;;;;;;;;;;4981730;28;20026;-37
2021/10/09 05:44:39;;;;;;;3.92;2.42;;;;;;;;;;4986422;28;20080;-40
2021/10/09 05:47:04;;;;;;;4.75;2.63;;;;;;;;;;4989089;28;20098;-38
2021/10/09 05:49:30;;;;;;;2.05;1.65;;;;;;;;;;4992318;28;20433;-38
2021/10/09 05:52:14;;;;;;;3.95;2.53;;;;;;;;;;4989029;28;20056;-37
2021/10/09 05:54:50;;;;;;;8.63;2.88;;;;;;;;;;4981037;28;20018;-38
2021/10/09 05:57:27;;;;;;;7.45;4.50;;;;;;;;;;4985439;28;20033;-39
2021/10/09 06:59:58;;;;;;;11.45;5.50;;;;;;;;;;5017326;28;20212;-39
2021/10/09 07:02:23;;;;;;;7.63;5.40;;;;;;;;;;4987845;28;20502;-39
2021/10/09 07:04:50;;;;;;;8.63;4.78;;;;;;;;;;4986643;28;20049;-38
2021/10/09 07:07:18;;;;;;;10.98;5.22;;;;;;;;;;4994609;28;20050;-38
2021/10/09 07:09:44;;;;;;;16.23;6.35;;;;;;;;;;4993831;28;20184;-38
2021/10/09 07:12:09;;;;;;;11.82;5.88;;;;;;;;;;4989068;28;20114;-37
2021/10/09 07:14:34;;;;;;;28.10;8.98;;;;;;;;;;4989891;28;20019;-38
2021/10/09 07:17:00;;;;;;;22.75;7.07;;;;;;;;;;4990714;28;20030;-38
2021/10/09 07:19:25;;;;;;;22.70;8.00;;;;;;;;;;4993995;28;20022;-40
2021/10/09 07:21:50;;;;;;;19.52;6.63;;;;;;;;;;4999306;28;20029;-40
2021/10/09 07:24:15;;;;;;;18.08;7.07;;;;;;;;;;4992220;28;20022;-37
2021/10/09 07:26:41;;;;;;;11.45;4.95;;;;;;;;;;4990937;28;20075;-41
2021/10/09 07:29:06;;;;;;;17.45;6.80;;;;;;;;;;4992570;28;20018;-39
2021/10/09 07:31:31;;;;;;;7.88;5.10;;;;;;;;;;4991164;28;20109;-38
2021/10/09 07:33:57;;;;;;;56.40;40.45;;;;;;;;;;4989735;28;20045;-38
2021/10/09 07:36:22;;;;;;;56.72;24.33;;;;;;;;;;4990702;28;20019;-37
2021/10/09 07:38:47;;;;;;;23.75;18.10;;;;;;;;;;4989433;28;20399;-37
2021/10/09 07:41:13;;;;;;;62.53;36.78;;;;;;;;;;4989962;28;20501;-41
2021/10/09 07:43:38;;;;;;;116.80;70.82;;;;;;;;;;4987392;28;20049;-42
2021/10/09 07:46:03;;;;;;;580.47;424.98;;;;;;;;;;4986701;28;20058;-39
2021/10/09 07:48:29;;;;;;;632.30;468.17;;;;;;;;;;4985498;28;20014;-39
2021/10/09 07:50:57;;;;;;;599.67;447.13;;;;;;;;;;4990140;28;20499;-40
2021/10/09 07:53:22;;;;;;;498.92;384.05;;;;;;;;;;4990415;28;20021;-47
2021/10/09 07:55:48;;;;;;;587.33;434.52;;;;;;;;;;4994865;28;20022;-42
2021/10/09 07:58:13;;;;;;;495.77;380.30;;;;;;;;;;4997198;28;20022;-44
2021/10/09 08:00:39;;;;;;;587.53;462.13;;;;;;;;;;4996076;28;20386;-46
2021/10/09 08:03:04;;;;;;;601.60;462.92;;;;;;;;;;4993111;28;20034;-45
2021/10/09 08:05:30;;;;;;;589.05;465.98;;;;;;;;;;4990026;28;20029;-44
2021/10/09 08:07:55;;;;;;;365.40;279.38;;;;;;;;;;4987510;28;20498;-42
2021/10/09 08:10:20;;;;;;;312.90;231.57;;;;;;;;;;4991053;28;20094;-42
2021/10/09 08:12:46;;;;;;;183.32;139.45;;;;;;;;;;5000907;28;20513;-42
2021/10/09 08:15:11;;;;;;;115.88;88.32;;;;;;;;;;4993157;28;20113;-45
2021/10/09 08:17:37;;;;;;;120.00;80.38;;;;;;;;;;4995013;28;20022;-44
2021/10/09 08:20:03;;;;;;;71.82;54.00;;;;;;;;;;4987377;28;20111;-44
2021/10/09 08:22:29;;;;;;;89.70;61.42;;;;;;;;;;4986527;28;20036;-44
2021/10/09 08:25:17;;;;;;;85.32;60.53;;;;;;;;;;4989015;28;20463;-42
2021/10/09 08:36:00;;;;;;;155.85;112.93;;;;;;;;;;4989073;28;20032;-43
2021/10/09 08:41:08;;;;;;;24.27;10.48;;;;;;;;;;4992950;28;20090;-48
2021/10/09 08:43:34;;;;;;;5.88;4.07;;;;;;;;;;5008827;28;20583;-46
2021/10/09 08:45:59;;;;;;;9.38;2.50;;;;;;;;;;4988152;28;20022;-44
2021/10/09 08:48:28;;;;;;;3.53;2.60;;;;;;;;;;4987512;28;20030;-43
2021/10/09 08:50:54;;;;;;;6.55;2.20;;;;;;;;;;4988953;28;20015;-45
2021/10/09 08:53:33;;;;;;;4.93;1.75;;;;;;;;;;4991168;28;20054;-43
2021/10/09 08:55:58;;;;;;;5.20;1.80;;;;;;;;;;4987790;28;20022;-42
2021/10/09 08:58:43;;;;;;;10.73;6.53;;;;;;;;;;4992326;28;20025;-42
2021/10/09 09:01:22;;;;;;;7.30;4.28;;;;;;;;;;4986699;28;20072;-44
2021/10/09 09:04:06;;;;;;;9.25;7.47;;;;;;;;;;4992886;28;20035;-41
2021/10/09 09:41:20;;;;;;;13.55;9.65;;;;;;;;;;4990454;28;20103;-44
2021/10/09 09:43:45;;;;;;;112.82;75.95;;;;;;;;;;4987044;28;20060;-43
2021/10/09 09:46:12;;;;;;;6.75;4.60;;;;;;;;;;4984096;28;20034;-44
2021/10/09 09:48:37;;;;;;;7.72;2.78;;;;;;;;;;4988572;28;20176;-46
2021/10/09 09:51:05;;;;;;;8.75;5.20;;;;;;;;;;4990451;28;20108;-44
2021/10/09 09:53:31;;;;;;;5.53;2.25;;;;;;;;;;4989182;28;20019;-44
2021/10/09 09:55:56;;;;;;;96.90;64.22;;;;;;;;;;4985995;28;20550;-48
2021/10/09 09:58:23;;;;;;;7.95;6.13;;;;;;;;;;4992441;28;20071;-44
2021/10/09 10:00:49;;;;;;;9.10;7.40;;;;;;;;;;4988026;28;20093;-44
2021/10/09 10:03:15;;;;;;;123.78;97.05;;;;;;;;;;4990746;28;20022;-47
2021/10/09 10:05:41;;;;;;;77.40;52.50;;;;;;;;;;4985476;28;20264;-45
2021/10/09 10:08:09;;;;;;;35.70;27.50;;;;;;;;;;4989555;28;20165;-43
2021/10/09 10:10:35;;;;;;;101.60;73.38;;;;;;;;;;4987134;28;20054;-45
2021/10/09 10:13:00;;;;;;;41.50;25.70;;;;;;;;;;4992571;28;20130;-44
2021/10/09 10:15:30;;;;;;;154.10;98.53;;;;;;;;;;4987460;28;20022;-48
2021/10/09 10:17:55;;;;;;;134.70;87.80;;;;;;;;;;4992905;28;20140;-42
2021/10/09 10:20:21;;;;;;;48.47;29.90;;;;;;;;;;4990341;28;20105;-41
2021/10/09 10:22:50;;;;;;;15.82;8.80;;;;;;;;;;4995321;28;20105;-48
2021/10/09 10:25:22;;;;;;;18.38;6.80;;;;;;;;;;4992247;28;20057;-42
2021/10/09 10:27:58;;;;;;;10.15;4.13;;;;;;;;;;4995025;28;20033;-46
2021/10/09 10:30:24;;;;;;;33.15;17.15;;;;;;;;;;4991731;28;20019;-47
2021/10/09 10:32:55;;;;;;;49.42;28.58;;;;;;;;;;4990710;28;20018;-48
2021/10/09 10:35:26;;;;;;;32.78;20.73;;;;;;;;;;4990415;28;20079;-46
2021/10/09 10:37:52;;;;;;;39.38;18.65;;;;;;;;;;4995446;28;20026;-44
2021/10/09 10:40:40;;;;;;;13.55;8.38;;;;;;;;;;4992158;28;20041;-45
2021/10/09 10:43:34;;;;;;;7.63;5.40;;;;;;;;;;4990091;28;20042;-41
2021/10/09 10:46:18;;;;;;;4.10;2.28;;;;;;;;;;4991595;28;20042;-47
2021/10/09 10:48:46;;;;;;;28.27;17.52;;;;;;;;;;4988339;28;20026;-46
2021/10/09 10:51:30;;;;;;;14.32;9.70;;;;;;;;;;4992698;28;20014;-50
2021/10/09 10:54:05;;;;;;;217.25;160.68;;;;;;;;;;4992545;28;20037;-43
2021/10/09 10:56:32;;;;;;;44.47;35.95;;;;;;;;;;4987440;28;20042;-46
2021/10/09 10:59:16;;;;;;;19.20;12.20;;;;;;;;;;4993820;28;20040;-43
2021/10/09 11:01:41;;;;;;;113.07;81.47;;;;;;;;;;4987856;28;20067;-42
2021/10/09 11:04:07;;;;;;;96.30;67.57;;;;;;;;;;4991256;28;20113;-50
2021/10/09 11:06:32;;;;;;;24.10;14.80;;;;;;;;;;4986371;28;20495;-41
2021/10/09 11:08:57;;;;;;;3.53;1.55;;;;;;;;;;4989588;28;20103;-41
2021/10/09 11:11:35;;;;;;;11.57;2.40;;;;;;;;;;4990773;28;20010;-45
2021/10/09 11:14:01;;;;;;;65.70;45.03;;;;;;;;;;4986186;28;20026;-47
2021/10/09 11:16:30;;;;;;;247.25;181.43;;;;;;;;;;4986089;28;20022;-46
2021/10/09 11:18:55;;;;;;;121.97;92.90;;;;;;;;;;4986798;28;20026;-46
2021/10/09 11:21:21;;;;;;;19.25;11.60;;;;;;;;;;4985518;28;20794;-44
2021/10/09 11:23:51;;;;;;;9.32;4.82;;;;;;;;;;4990387;28;20037;-46
2021/10/09 11:26:17;;;;;;;21.02;15.63;;;;;;;;;;4988312;28;20349;-42
2021/10/09 11:28:43;;;;;;;5.47;2.03;;;;;;;;;;4991829;28;20034;-44
2021/10/09 11:31:08;;;;;;;40.97;28.48;;;;;;;;;;4988923;28;20391;-47
2021/10/09 11:33:35;;;;;;;11.45;9.93;;;;;;;;;;4987067;28;20018;-46
2021/10/09 11:36:01;;;;;;;14.02;9.95;;;;;;;;;;4990276;28;20018;-44
2021/10/09 11:38:29;;;;;;;92.82;68.03;;;;;;;;;;4992853;28;20037;-46
2021/10/09 11:40:58;;;;;;;175.35;137.68;;;;;;;;;;4993769;28;20513;-43
2021/10/09 11:56:58;;;;;;;18.67;12.20;;;;;;;;;;4994086;28;20033;-45
2021/10/09 11:59:33;;;;;;;9.45;8.27;;;;;;;;;;4988994;28;20394;-45
2021/10/09 12:01:58;;;;;;;4.25;3.08;;;;;;;;;;4990567;28;20103;-45
2021/10/09 12:04:24;;;;;;;7.45;3.03;;;;;;;;;;4993299;28;20483;-46
2021/10/09 12:06:57;;;;;;;10.05;3.72;;;;;;;;;;4991141;28;20026;-45
2021/10/09 12:10:02;;;;;;;5.60;3.50;;;;;;;;;;4990029;28;20026;-45
2021/10/09 12:12:35;;;;;;;4.88;1.77;;;;;;;;;;4995091;28;20027;-45
2021/10/09 12:15:00;;;;;;;8.52;5.07;;;;;;;;;;4991817;28;20029;-43
2021/10/09 12:17:34;;;;;;;9.70;2.13;;;;;;;;;;4991452;28;20100;-47
2021/10/09 12:20:00;;;;;;;4.43;2.97;;;;;;;;;;4988486;28;20101;-44
2021/10/09 12:22:27;;;;;;;13.25;9.27;;;;;;;;;;4988640;28;20025;-41
2021/10/09 12:24:54;;;;;;;4.93;3.00;;;;;;;;;;4987031;28;20529;-42
2021/10/09 12:27:21;;;;;;;6.15;4.60;;;;;;;;;;4985636;28;20019;-46
2021/10/09 12:30:01;;;;;;;6.28;3.60;;;;;;;;;;4989104;28;20022;-43
2021/10/09 12:32:27;;;;;;;4.32;2.92;;;;;;;;;;4992811;28;20048;-46
2021/10/09 12:35:04;;;;;;;5.32;2.28;;;;;;;;;;4982330;28;20603;-44
2021/10/09 12:37:30;;;;;;;4.15;1.88;;;;;;;;;;4990425;28;20403;-44
2021/10/09 12:40:17;;;;;;;6.13;5.53;;;;;;;;;;4993334;28;20094;-44
2021/10/09 12:42:54;;;;;;;3.70;2.45;;;;;;;;;;4991221;28;20101;-43
2021/10/09 12:45:19;;;;;;;6.68;2.92;;;;;;;;;;4991206;28;20469;-43
2021/10/09 12:47:45;;;;;;;5.80;5.18;;;;;;;;;;4993441;28;20023;-44
2021/10/09 12:50:10;;;;;;;8.65;3.40;;;;;;;;;;4987777;28;20018;-44
2021/10/09 12:52:36;;;;;;;5.25;2.03;;;;;;;;;;4986195;28;20082;-47
2021/10/09 12:55:03;;;;;;;3.33;2.85;;;;;;;;;;4990214;28;20018;-45
2021/10/09 12:57:29;;;;;;;2.05;1.70;;;;;;;;;;4994385;28;20014;-45
2021/10/09 12:59:54;;;;;;;5.05;2.00;;;;;;;;;;4991998;28;20030;-42
2021/10/09 13:02:20;;;;;;;3.42;1.60;;;;;;;;;;4990876;28;20075;-47
2021/10/09 13:04:45;;;;;;;5.32;2.42;;;;;;;;;;4992525;28;20090;-43
2021/10/09 13:07:10;;;;;;;3.80;3.05;;;;;;;;;;4990379;28;20079;-43
2021/10/09 13:09:36;;;;;;;5.20;2.90;;;;;;;;;;4990152;28;20035;-44
2021/10/09 13:12:03;;;;;;;5.95;1.85;;;;;;;;;;4988894;28;20503;-44
2021/10/09 13:14:29;;;;;;;3.65;2.50;;;;;;;;;;4989682;28;20023;-44
2021/10/09 13:16:54;;;;;;;15.45;2.60;;;;;;;;;;4991774;28;20026;-46
2021/10/09 13:19:19;;;;;;;10.23;2.45;;;;;;;;;;4988045;28;20029;-42
2021/10/09 13:21:45;;;;;;;3.22;1.85;;;;;;;;;;4987911;28;20040;-43
2021/10/09 13:24:10;;;;;;;9.75;2.55;;;;;;;;;;4989959;28;20725;-43
2021/10/09 13:26:36;;;;;;;8.07;1.77;;;;;;;;;;4989342;28;20034;-43
2021/10/09 13:29:02;;;;;;;7.45;1.75;;;;;;;;;;4988087;28;20083;-42
2021/10/09 13:31:27;;;;;;;8.55;2.47;;;;;;;;;;4992211;28;20027;-47
2021/10/09 13:33:52;;;;;;;4.22;2.30;;;;;;;;;;4989403;28;20026;-44
2021/10/09 13:36:19;;;;;;;7.28;2.75;;;;;;;;;;4991777;28;20025;-45
2021/10/09 13:38:44;;;;;;;5.07;1.90;;;;;;;;;;4984145;28;20026;-44
2021/10/09 13:41:11;;;;;;;4.88;2.17;;;;;;;;;;4987651;28;20032;-45
2021/10/09 13:43:36;;;;;;;4.50;2.08;;;;;;;;;;4988402;28;20045;-48
2021/10/09 13:46:01;;;;;;;3.45;1.70;;;;;;;;;;4990102;28;20486;-44
2021/10/09 13:48:26;;;;;;;2.83;1.60;;;;;;;;;;4988266;28;20034;-44
2021/10/09 13:50:53;;;;;;;8.48;1.60;;;;;;;;;;4989401;28;20661;-42
2021/10/09 13:53:19;;;;;;;4.85;1.80;;;;;;;;;;4992929;28;20586;-51
2021/10/09 13:55:45;;;;;;;2.55;1.88;;;;;;;;;;4987309;28;20113;-42
2021/10/09 13:58:10;;;;;;;5.07;2.47;;;;;;;;;;4989681;28;20023;-45
2021/10/09 14:00:36;;;;;;;2.50;1.38;;;;;;;;;;4990492;28;20521;-45
2021/10/09 14:03:02;;;;;;;12.45;8.35;;;;;;;;;;4993476;28;20031;-47
2021/10/09 14:05:29;;;;;;;18.73;9.15;;;;;;;;;;4988628;28;20087;-42
2021/10/09 14:07:54;;;;;;;17.02;6.68;;;;;;;;;;4996720;28;20034;-45
2021/10/09 14:10:19;;;;;;;18.65;6.72;;;;;;;;;;4991883;28;20124;-44
2021/10/09 14:12:45;;;;;;;16.10;7.25;;;;;;;;;;4989851;28;20080;-42
2021/10/09 14:15:11;;;;;;;15.20;6.50;;;;;;;;;;4989437;28;20049;-43
2021/10/09 14:17:37;;;;;;;7.03;3.22;;;;;;;;;;4994770;28;20030;-47
2021/10/09 14:20:03;;;;;;;11.80;4.15;;;;;;;;;;4996000;28;20107;-43
2021/10/09 14:22:28;;;;;;;11.52;5.90;;;;;;;;;;4991163;28;20015;-43
2021/10/09 14:24:54;;;;;;;11.25;5.97;;;;;;;;;;4987592;28;20025;-41
2021/10/09 14:27:19;;;;;;;4.32;2.88;;;;;;;;;;4991662;28;20457;-45
2021/10/09 14:29:45;;;;;;;9.73;5.15;;;;;;;;;;4992895;28;20569;-46
2021/10/09 14:32:10;;;;;;;5.00;2.20;;;;;;;;;;4986959;28;20029;-48
2021/10/09 14:34:35;;;;;;;4.63;2.00;;;;;;;;;;4986822;28;20026;-44
2021/10/09 14:37:00;;;;;;;7.55;1.80;;;;;;;;;;4993553;28;20149;-47
2021/10/09 14:39:27;;;;;;;5.35;2.05;;;;;;;;;;4991500;28;20037;-47
2021/10/09 14:41:53;;;;;;;5.05;1.95;;;;;;;;;;4989646;28;20220;-44
2021/10/09 14:44:18;;;;;;;1.90;1.40;;;;;;;;;;4996458;28;20537;-42
2021/10/09 14:49:14;;;;;;;1.65;1.23;;;;;;;;;;4991889;28;20021;-44
2021/10/09 15:18:59;;;;;;;13.32;2.67;;;;;;;;;;4996750;28;20052;-41
2021/10/09 15:21:25;;;;;;;8.27;2.78;;;;;;;;;;4986876;28;20892;-46
2021/10/09 15:23:50;;;;;;;3.83;2.13;;;;;;;;;;4984486;28;20118;-44
2021/10/09 15:26:15;;;;;;;5.05;2.22;;;;;;;;;;4989324;28;20024;-45
2021/10/09 15:28:40;;;;;;;11.15;2.63;;;;;;;;;;4986472;28;20111;-43
2021/10/09 15:31:07;;;;;;;6.63;3.67;;;;;;;;;;4989757;28;20026;-44
2021/10/09 15:33:32;;;;;;;4.90;2.58;;;;;;;;;;4983266;28;20460;-44
2021/10/09 15:35:57;;;;;;;4.97;2.67;;;;;;;;;;4990930;28;20022;-45
2021/10/09 15:38:23;;;;;;;4.57;2.90;;;;;;;;;;4984035;28;20027;-46
2021/10/09 15:40:49;;;;;;;10.00;4.93;;;;;;;;;;4987606;28;20038;-48
2021/10/09 15:43:14;;;;;;;5.80;3.30;;;;;;;;;;4986427;28;20099;-44
2021/10/09 15:45:39;;;;;;;6.63;4.38;;;;;;;;;;4988262;28;20034;-44
2021/10/09 15:48:05;;;;;;;7.00;4.65;;;;;;;;;;4989319;28;20124;-44
2021/10/09 15:50:30;;;;;;;7.43;5.00;;;;;;;;;;4986373;28;20026;-44
2021/10/09 15:52:55;;;;;;;7.53;4.85;;;;;;;;;;4985790;28;20044;-44
2021/10/09 15:55:21;;;;;;;9.50;7.35;;;;;;;;;;4984132;28;20455;-42
2021/10/09 15:57:46;;;;;;;17.65;6.93;;;;;;;;;;4990025;28;20135;-42
2021/10/09 16:00:12;;;;;;;11.38;5.78;;;;;;;;;;4981558;28;20083;-41
2021/10/09 16:02:38;;;;;;;3.83;2.42;;;;;;;;;;4986003;28;20029;-42
2021/10/09 16:05:03;;;;;;;3.47;2.13;;;;;;;;;;4991869;28;20026;-43
2021/10/09 16:07:29;;;;;;;3.67;2.28;;;;;;;;;;4979046;28;20534;-41
2021/10/09 16:09:55;;;;;;;3.92;1.95;;;;;;;;;;4987624;28;20030;-44
2021/10/09 16:12:20;;;;;;;3.90;2.42;;;;;;;;;;4990260;28;20018;-46
2021/10/09 16:14:45;;;;;;;6.72;2.20;;;;;;;;;;4991789;28;20027;-42
2021/10/09 16:17:30;;;;;;;5.43;2.42;;;;;;;;;;4988524;28;20029;-42
2021/10/09 16:19:56;;;;;;;6.30;2.17;;;;;;;;;;4986522;28;20037;-41
2021/10/09 16:22:21;;;;;;;2.80;1.35;;;;;;;;;;4984470;28;20027;-42
2021/10/09 16:24:47;;;;;;;2.10;1.27;;;;;;;;;;4987436;28;20030;-41
2021/10/09 16:27:13;;;;;;;3.35;2.17;;;;;;;;;;4986107;28;20026;-46
2021/10/09 16:29:38;;;;;;;4.18;2.63;;;;;;;;;;4984285;28;20190;-47
2021/10/09 16:32:04;;;;;;;3.58;1.63;;;;;;;;;;4989125;28;20031;-43
2021/10/09 16:34:29;;;;;;;3.05;1.80;;;;;;;;;;4987914;28;20175;-42
2021/10/09 16:36:57;;;;;;;2.47;1.65;;;;;;;;;;4983380;28;20014;-41
2021/10/09 16:39:23;;;;;;;9.40;2.55;;;;;;;;;;4985618;28;20482;-46
2021/10/09 16:41:51;;;;;;;2.38;1.85;;;;;;;;;;4987590;28;20029;-40
2021/10/09 16:44:17;;;;;;;2.50;1.73;;;;;;;;;;4987671;28;20069;-41
2021/10/09 16:46:42;;;;;;;5.13;2.15;;;;;;;;;;4989796;28;20091;-42
2021/10/09 16:49:08;;;;;;;6.35;2.58;;;;;;;;;;4985912;28;20056;-41
2021/10/09 16:51:33;;;;;;;4.68;1.90;;;;;;;;;;4987867;28;20046;-41
2021/10/09 16:53:59;;;;;;;12.10;2.35;;;;;;;;;;4983200;28;20163;-41
2021/10/09 16:56:24;;;;;;;8.90;1.77;;;;;;;;;;4986514;28;20626;-46
2021/10/09 16:58:50;;;;;;;5.60;2.55;;;;;;;;;;4988321;28;20643;-44
2021/10/09 17:01:15;;;;;;;5.30;2.05;;;;;;;;;;4979947;28;20029;-42
2021/10/09 17:03:40;;;;;;;6.47;2.35;;;;;;;;;;4982969;28;20060;-38
2021/10/09 17:06:07;;;;;;;9.60;2.90;;;;;;;;;;4983150;28;20117;-42
2021/10/09 17:08:33;;;;;;;3.15;1.52;;;;;;;;;;4977319;28;20030;-40
2021/10/09 17:10:59;;;;;;;3.53;2.08;;;;;;;;;;4986732;28;20026;-42
2021/10/09 17:13:25;;;;;;;11.60;3.25;;;;;;;;;;4978689;28;20088;-40
2021/10/09 17:15:50;;;;;;;9.32;2.60;;;;;;;;;;4985382;28;20475;-41
2021/10/09 17:18:15;;;;;;;4.90;2.80;;;;;;;;;;4990142;28;20033;-45
2021/10/09 17:20:40;;;;;;;3.85;2.33;;;;;;;;;;4986837;28;20033;-44